CMP108 MDSD-MPTO
Flight info
| Callsign | CMP108 |
|---|---|
| Flight time | 2h 12m |
| Altitude | 36000 |
| Route | PALA2J PALAS UM597 AGUJA AKRIN |
| Aircraft | B738/M-SDE3FGHIRWY/S |
Departure
| Time | 2026-04-28 18:49 |
|---|---|
| Airport | Las Américas International Airport (MDSD) |
Arrival
| Time | 2026-04-28 21:01 |
|---|---|
| Airport | Tocumen International Airport (MPTO) |
| Time | Latitude | Longitude | Altitude | Speed | Heading |
|---|---|---|---|---|---|
| 2026-04-28 18:28 | 18.42986 | -69.67478 | 68 ft | 0 kts | 205° |
| 2026-04-28 18:39 | 18.42987 | -69.67478 | 68 ft | 1 kts | 205° |
| 2026-04-28 18:39 | 18.43009 | -69.67467 | 62 ft | 4 kts | 204° |
| 2026-04-28 18:40 | 18.43033 | -69.67456 | 58 ft | 4 kts | 202° |
| 2026-04-28 18:40 | 18.43059 | -69.67445 | 68 ft | 4 kts | 200° |
| 2026-04-28 18:40 | 18.43069 | -69.67441 | 68 ft | 1 kts | 200° |
| 2026-04-28 18:43 | 18.43050 | -69.67438 | 62 ft | 2 kts | 166° |
| 2026-04-28 18:43 | 18.43036 | -69.67432 | 65 ft | 3 kts | 156° |
| 2026-04-28 18:44 | 18.43005 | -69.67408 | 65 ft | 11 kts | 138° |
| 2026-04-28 18:44 | 18.42958 | -69.67251 | 68 ft | 12 kts | 95° |
| 2026-04-28 18:44 | 18.42952 | -69.67162 | 69 ft | 13 kts | 94° |
| 2026-04-28 18:45 | 18.42898 | -69.67065 | 63 ft | 18 kts | 149° |
| 2026-04-28 18:45 | 18.42833 | -69.67037 | 70 ft | 17 kts | 161° |
| 2026-04-28 18:45 | 18.42798 | -69.67025 | 69 ft | 17 kts | 160° |
| 2026-04-28 18:45 | 18.42683 | -69.66982 | 62 ft | 22 kts | 161° |
| 2026-04-28 18:46 | 18.42496 | -69.66914 | 69 ft | 29 kts | 160° |
| 2026-04-28 18:46 | 18.42310 | -69.66843 | 69 ft | 28 kts | 160° |
| 2026-04-28 18:46 | 18.42134 | -69.66780 | 69 ft | 26 kts | 159° |
| 2026-04-28 18:46 | 18.41968 | -69.66721 | 70 ft | 24 kts | 162° |
| 2026-04-28 18:47 | 18.41814 | -69.66664 | 70 ft | 23 kts | 161° |
| 2026-04-28 18:47 | 18.41666 | -69.66610 | 70 ft | 22 kts | 161° |
| 2026-04-28 18:47 | 18.41565 | -69.66532 | 70 ft | 18 kts | 114° |
| 2026-04-28 18:47 | 18.41536 | -69.66455 | 73 ft | 0 kts | 95° |
| 2026-04-28 18:48 | 18.41536 | -69.66453 | 73 ft | 4 kts | 95° |
| 2026-04-28 18:48 | 18.41563 | -69.66396 | 70 ft | 10 kts | 24° |
| 2026-04-28 18:48 | 18.41635 | -69.66411 | 75 ft | 15 kts | 338° |
| 2026-04-28 18:48 | 18.41945 | -69.66519 | 77 ft | 84 kts | 341° |
| 2026-04-28 18:49 | 18.42716 | -69.66796 | 70 ft | 148 kts | 340° |
| 2026-04-28 18:49 | 18.43454 | -69.67059 | 153 ft | 178 kts | 341° |
| 2026-04-28 18:49 | 18.45102 | -69.67641 | 957 ft | 199 kts | 344° |
| 2026-04-28 18:49 | 18.46453 | -69.68060 | 1787 ft | 201 kts | 343° |
| 2026-04-28 18:50 | 18.47786 | -69.68521 | 2762 ft | 210 kts | 340° |
| 2026-04-28 18:50 | 18.49246 | -69.69078 | 3092 ft | 239 kts | 340° |
| 2026-04-28 18:50 | 18.50852 | -69.69708 | 3579 ft | 250 kts | 339° |
| 2026-04-28 18:50 | 18.52521 | -69.70337 | 4165 ft | 265 kts | 341° |
| 2026-04-28 18:51 | 18.54413 | -69.70502 | 4731 ft | 281 kts | 15° |
| 2026-04-28 18:51 | 18.56089 | -69.69507 | 5796 ft | 279 kts | 45° |
| 2026-04-28 18:51 | 18.57120 | -69.67804 | 6620 ft | 281 kts | 74° |
| 2026-04-28 18:51 | 18.57301 | -69.65761 | 7309 ft | 283 kts | 101° |
| 2026-04-28 18:52 | 18.56584 | -69.63854 | 8052 ft | 282 kts | 129° |
| 2026-04-28 18:52 | 18.55105 | -69.62538 | 8824 ft | 280 kts | 157° |
| 2026-04-28 18:52 | 18.53213 | -69.62161 | 9620 ft | 279 kts | 186° |
| 2026-04-28 18:52 | 18.51330 | -69.62660 | 10408 ft | 283 kts | 200° |
| 2026-04-28 18:53 | 18.49409 | -69.63407 | 10623 ft | 307 kts | 200° |
| 2026-04-28 18:53 | 18.47328 | -69.64210 | 10819 ft | 329 kts | 200° |
| 2026-04-28 18:53 | 18.45135 | -69.65034 | 11318 ft | 339 kts | 200° |
| 2026-04-28 18:54 | 18.40862 | -69.67078 | 12705 ft | 343 kts | 221° |
| 2026-04-28 18:54 | 18.39212 | -69.68889 | 13455 ft | 344 kts | 227° |
| 2026-04-28 18:54 | 18.37581 | -69.70751 | 14069 ft | 347 kts | 226° |
| 2026-04-28 18:55 | 18.34219 | -69.74487 | 15214 ft | 354 kts | 226° |
| 2026-04-28 18:55 | 18.33092 | -69.75734 | 15589 ft | 356 kts | 226° |
| 2026-04-28 18:55 | 18.30791 | -69.78280 | 16352 ft | 360 kts | 226° |
| 2026-04-28 18:55 | 18.29058 | -69.80198 | 16908 ft | 364 kts | 226° |
| 2026-04-28 18:56 | 18.27304 | -69.82139 | 17460 ft | 367 kts | 226° |
| 2026-04-28 18:56 | 18.25540 | -69.84091 | 18006 ft | 370 kts | 226° |
| 2026-04-28 18:56 | 18.24361 | -69.85395 | 18344 ft | 372 kts | 226° |
| 2026-04-28 18:57 | 18.20764 | -69.89374 | 19267 ft | 378 kts | 227° |
| 2026-04-28 18:57 | 18.18948 | -69.91383 | 19722 ft | 380 kts | 227° |
| 2026-04-28 18:57 | 18.17737 | -69.92722 | 20021 ft | 382 kts | 227° |
| 2026-04-28 18:57 | 18.17120 | -69.93404 | 20178 ft | 383 kts | 227° |
| 2026-04-28 18:58 | 18.13419 | -69.97493 | 21078 ft | 388 kts | 227° |
| 2026-04-28 18:58 | 18.11549 | -69.99558 | 21516 ft | 391 kts | 227° |
| 2026-04-28 18:58 | 18.07157 | -70.04406 | 22514 ft | 397 kts | 227° |
| 2026-04-28 18:59 | 18.05245 | -70.06515 | 22933 ft | 400 kts | 227° |
| 2026-04-28 18:59 | 18.03323 | -70.08635 | 23338 ft | 402 kts | 227° |
| 2026-04-28 18:59 | 18.01385 | -70.10772 | 23705 ft | 405 kts | 227° |
| 2026-04-28 18:59 | 17.99434 | -70.12921 | 24058 ft | 406 kts | 228° |
| 2026-04-28 19:00 | 17.97484 | -70.15069 | 24435 ft | 407 kts | 227° |
| 2026-04-28 19:00 | 17.95526 | -70.17226 | 24809 ft | 408 kts | 227° |
| 2026-04-28 19:00 | 17.93565 | -70.19384 | 25156 ft | 409 kts | 228° |
| 2026-04-28 19:00 | 17.92260 | -70.20820 | 25380 ft | 410 kts | 227° |
| 2026-04-28 19:01 | 17.89612 | -70.23733 | 25836 ft | 412 kts | 227° |
| 2026-04-28 19:01 | 17.87631 | -70.25912 | 26176 ft | 413 kts | 228° |
| 2026-04-28 19:01 | 17.85670 | -70.28068 | 26506 ft | 415 kts | 227° |
| 2026-04-28 19:01 | 17.83674 | -70.30261 | 26828 ft | 416 kts | 227° |
| 2026-04-28 19:02 | 17.81669 | -70.32464 | 27150 ft | 417 kts | 227° |
| 2026-04-28 19:02 | 17.79661 | -70.34669 | 27463 ft | 419 kts | 227° |
| 2026-04-28 19:02 | 17.77648 | -70.36879 | 27771 ft | 420 kts | 227° |
| 2026-04-28 19:02 | 17.75623 | -70.39101 | 28058 ft | 421 kts | 227° |
| 2026-04-28 19:03 | 17.73593 | -70.41328 | 28355 ft | 423 kts | 227° |
| 2026-04-28 19:03 | 17.71561 | -70.43556 | 28649 ft | 422 kts | 228° |
| 2026-04-28 19:03 | 17.69530 | -70.45783 | 28979 ft | 422 kts | 228° |
| 2026-04-28 19:03 | 17.67499 | -70.48008 | 29226 ft | 423 kts | 228° |
| 2026-04-28 19:04 | 17.65459 | -70.50244 | 29443 ft | 425 kts | 228° |
| 2026-04-28 19:04 | 17.63407 | -70.52491 | 29686 ft | 426 kts | 228° |
| 2026-04-28 19:04 | 17.61356 | -70.54737 | 29935 ft | 427 kts | 228° |
| 2026-04-28 19:04 | 17.59326 | -70.56958 | 30205 ft | 427 kts | 228° |
| 2026-04-28 19:05 | 17.57276 | -70.59200 | 30511 ft | 425 kts | 228° |
| 2026-04-28 19:05 | 17.55238 | -70.61428 | 30817 ft | 423 kts | 228° |
| 2026-04-28 19:05 | 17.53201 | -70.63655 | 31093 ft | 423 kts | 228° |
| 2026-04-28 19:05 | 17.51167 | -70.65878 | 31353 ft | 423 kts | 227° |
| 2026-04-28 19:06 | 17.49127 | -70.68106 | 31633 ft | 422 kts | 227° |
| 2026-04-28 19:06 | 17.47783 | -70.69575 | 31825 ft | 421 kts | 227° |
| 2026-04-28 19:06 | 17.45072 | -70.72534 | 32220 ft | 420 kts | 227° |
| 2026-04-28 19:06 | 17.43051 | -70.74740 | 32509 ft | 420 kts | 227° |
| 2026-04-28 19:07 | 17.41031 | -70.76943 | 32815 ft | 419 kts | 227° |
| 2026-04-28 19:07 | 17.39016 | -70.79141 | 33122 ft | 418 kts | 227° |
| 2026-04-28 19:07 | 17.37006 | -70.81332 | 33423 ft | 417 kts | 227° |
| 2026-04-28 19:07 | 17.35001 | -70.83517 | 33739 ft | 416 kts | 227° |
| 2026-04-28 19:08 | 17.33002 | -70.85695 | 34026 ft | 415 kts | 227° |
| 2026-04-28 19:08 | 17.31003 | -70.87872 | 34278 ft | 414 kts | 227° |
| 2026-04-28 19:08 | 17.29015 | -70.90037 | 34549 ft | 412 kts | 227° |
| 2026-04-28 19:08 | 17.27028 | -70.92200 | 34796 ft | 411 kts | 227° |
| 2026-04-28 19:09 | 17.25045 | -70.94357 | 35025 ft | 411 kts | 227° |
| 2026-04-28 19:09 | 17.23085 | -70.96490 | 35253 ft | 411 kts | 227° |
| 2026-04-28 19:09 | 17.21109 | -70.98638 | 35504 ft | 409 kts | 228° |
| 2026-04-28 19:09 | 17.19135 | -71.00784 | 35754 ft | 408 kts | 228° |
| 2026-04-28 19:10 | 17.17164 | -71.02925 | 35971 ft | 408 kts | 228° |
| 2026-04-28 19:10 | 17.15200 | -71.05058 | 36158 ft | 408 kts | 228° |
| 2026-04-28 19:10 | 17.13226 | -71.07202 | 36329 ft | 409 kts | 228° |
| 2026-04-28 19:10 | 17.11257 | -71.09341 | 36537 ft | 408 kts | 228° |
| 2026-04-28 19:11 | 17.09290 | -71.11475 | 36762 ft | 407 kts | 228° |
| 2026-04-28 19:11 | 17.07326 | -71.13605 | 36959 ft | 407 kts | 228° |
| 2026-04-28 19:11 | 17.03370 | -71.17895 | 36981 ft | 410 kts | 228° |
| 2026-04-28 19:12 | 16.99419 | -71.22177 | 36976 ft | 407 kts | 228° |
| 2026-04-28 19:12 | 16.95521 | -71.26397 | 36977 ft | 404 kts | 228° |
| 2026-04-28 19:13 | 16.91626 | -71.30612 | 36977 ft | 402 kts | 228° |
| 2026-04-28 19:13 | 16.87744 | -71.34811 | 36977 ft | 401 kts | 228° |
| 2026-04-28 19:14 | 16.83861 | -71.39009 | 36977 ft | 402 kts | 228° |
| 2026-04-28 19:14 | 16.79968 | -71.43215 | 37030 ft | 403 kts | 226° |
| 2026-04-28 19:15 | 16.76059 | -71.47435 | 36993 ft | 405 kts | 226° |
| 2026-04-28 19:15 | 16.72795 | -71.50956 | 36980 ft | 406 kts | 226° |
| 2026-04-28 19:16 | 16.68223 | -71.55886 | 36981 ft | 407 kts | 226° |
| 2026-04-28 19:16 | 16.64284 | -71.60131 | 36985 ft | 408 kts | 226° |
| 2026-04-28 19:17 | 16.60340 | -71.64381 | 36981 ft | 408 kts | 226° |
| 2026-04-28 19:17 | 16.56395 | -71.68625 | 36981 ft | 407 kts | 226° |
| 2026-04-28 19:18 | 16.52397 | -71.72821 | 36976 ft | 407 kts | 225° |
| 2026-04-28 19:18 | 16.48386 | -71.76983 | 36978 ft | 406 kts | 225° |
| 2026-04-28 19:19 | 16.44380 | -71.81146 | 36978 ft | 406 kts | 225° |
| 2026-04-28 19:19 | 16.40391 | -71.85299 | 36977 ft | 405 kts | 225° |
| 2026-04-28 19:20 | 16.36402 | -71.89452 | 36974 ft | 405 kts | 225° |
| 2026-04-28 19:20 | 16.32441 | -71.93574 | 36976 ft | 405 kts | 225° |
| 2026-04-28 19:21 | 16.28455 | -71.97719 | 36975 ft | 405 kts | 225° |
| 2026-04-28 19:21 | 16.24465 | -72.01866 | 36976 ft | 405 kts | 225° |
| 2026-04-28 19:22 | 16.21797 | -72.04637 | 36975 ft | 405 kts | 225° |
| 2026-04-28 19:22 | 16.16488 | -72.10150 | 36972 ft | 405 kts | 225° |
| 2026-04-28 19:23 | 16.12487 | -72.14300 | 36974 ft | 406 kts | 225° |
| 2026-04-28 19:23 | 16.08512 | -72.18422 | 36974 ft | 406 kts | 225° |
| 2026-04-28 19:24 | 16.04510 | -72.22570 | 36969 ft | 407 kts | 225° |
| 2026-04-28 19:24 | 16.00504 | -72.26720 | 36969 ft | 407 kts | 225° |
| 2026-04-28 19:25 | 15.96490 | -72.30874 | 36971 ft | 407 kts | 225° |
| 2026-04-28 19:25 | 15.92474 | -72.35031 | 36969 ft | 408 kts | 225° |
| 2026-04-28 19:26 | 15.88455 | -72.39190 | 36968 ft | 408 kts | 225° |
| 2026-04-28 19:26 | 15.84434 | -72.43351 | 36967 ft | 408 kts | 225° |
| 2026-04-28 19:27 | 15.80405 | -72.47516 | 36964 ft | 408 kts | 225° |
| 2026-04-28 19:27 | 15.76377 | -72.51678 | 36962 ft | 408 kts | 225° |
| 2026-04-28 19:28 | 15.72351 | -72.55836 | 36963 ft | 408 kts | 225° |
| 2026-04-28 19:28 | 15.68321 | -72.59996 | 36962 ft | 408 kts | 225° |
| 2026-04-28 19:29 | 15.65652 | -72.62749 | 36962 ft | 408 kts | 225° |
| 2026-04-28 19:29 | 15.60941 | -72.67607 | 36954 ft | 408 kts | 225° |
| 2026-04-28 19:30 | 15.56906 | -72.71765 | 36956 ft | 408 kts | 225° |
| 2026-04-28 19:30 | 15.52876 | -72.75915 | 36955 ft | 408 kts | 225° |
| 2026-04-28 19:31 | 15.48845 | -72.80064 | 36954 ft | 408 kts | 226° |
| 2026-04-28 19:31 | 15.44816 | -72.84209 | 36959 ft | 408 kts | 226° |
| 2026-04-28 19:32 | 15.40813 | -72.88324 | 36955 ft | 408 kts | 226° |
| 2026-04-28 19:32 | 15.36788 | -72.92462 | 36953 ft | 408 kts | 226° |
| 2026-04-28 19:33 | 15.32750 | -72.96603 | 36956 ft | 408 kts | 226° |
| 2026-04-28 19:33 | 15.28714 | -73.00732 | 36954 ft | 408 kts | 225° |
| 2026-04-28 19:34 | 15.24674 | -73.04864 | 36955 ft | 408 kts | 226° |
| 2026-04-28 19:34 | 15.20632 | -73.08998 | 36945 ft | 408 kts | 226° |
| 2026-04-28 19:35 | 15.16588 | -73.13131 | 36949 ft | 408 kts | 226° |
| 2026-04-28 19:35 | 15.12570 | -73.17238 | 36943 ft | 408 kts | 226° |
| 2026-04-28 19:36 | 15.08523 | -73.21370 | 36953 ft | 408 kts | 226° |
| 2026-04-28 19:36 | 15.04396 | -73.25428 | 36955 ft | 409 kts | 224° |
| 2026-04-28 19:37 | 15.00931 | -73.28753 | 36955 ft | 409 kts | 224° |
| 2026-04-28 19:37 | 14.96056 | -73.33450 | 36954 ft | 409 kts | 224° |
| 2026-04-28 19:38 | 14.91895 | -73.37475 | 36947 ft | 410 kts | 224° |
| 2026-04-28 19:38 | 14.87763 | -73.41470 | 36939 ft | 410 kts | 224° |
| 2026-04-28 19:39 | 14.83660 | -73.45562 | 36940 ft | 410 kts | 226° |
| 2026-04-28 19:39 | 14.79656 | -73.49761 | 36948 ft | 410 kts | 226° |
| 2026-04-28 19:40 | 14.75648 | -73.53962 | 36933 ft | 410 kts | 226° |
| 2026-04-28 19:40 | 14.71633 | -73.58145 | 36936 ft | 410 kts | 226° |
| 2026-04-28 19:41 | 14.67611 | -73.62320 | 36936 ft | 410 kts | 226° |
| 2026-04-28 19:41 | 14.63583 | -73.66496 | 36940 ft | 410 kts | 226° |
| 2026-04-28 19:42 | 14.59557 | -73.70668 | 36947 ft | 410 kts | 226° |
| 2026-04-28 19:42 | 14.56209 | -73.74136 | 36938 ft | 410 kts | 226° |
| 2026-04-28 19:43 | 14.51522 | -73.78989 | 36941 ft | 410 kts | 226° |
| 2026-04-28 19:43 | 14.47491 | -73.83161 | 36933 ft | 410 kts | 226° |
| 2026-04-28 19:44 | 14.43459 | -73.87331 | 36935 ft | 410 kts | 226° |
| 2026-04-28 19:44 | 14.39450 | -73.91475 | 36930 ft | 410 kts | 226° |
| 2026-04-28 19:45 | 14.35416 | -73.95643 | 36916 ft | 410 kts | 227° |
| 2026-04-28 19:45 | 14.31391 | -73.99800 | 36927 ft | 410 kts | 227° |
| 2026-04-28 19:46 | 14.27366 | -74.03962 | 36926 ft | 410 kts | 227° |
| 2026-04-28 19:46 | 14.23339 | -74.08131 | 36924 ft | 410 kts | 227° |
| 2026-04-28 19:47 | 14.19307 | -74.12303 | 36929 ft | 410 kts | 227° |
| 2026-04-28 19:47 | 14.15277 | -74.16470 | 36924 ft | 411 kts | 227° |
| 2026-04-28 19:48 | 14.11272 | -74.20622 | 36923 ft | 411 kts | 227° |
| 2026-04-28 19:48 | 14.07241 | -74.24803 | 36921 ft | 411 kts | 227° |
| 2026-04-28 19:49 | 14.03212 | -74.28980 | 36922 ft | 411 kts | 227° |
| 2026-04-28 19:49 | 13.99179 | -74.33158 | 36921 ft | 411 kts | 227° |
| 2026-04-28 19:50 | 13.93160 | -74.39390 | 36916 ft | 410 kts | 227° |
| 2026-04-28 19:51 | 13.89135 | -74.43554 | 36917 ft | 410 kts | 227° |
| 2026-04-28 19:51 | 13.85104 | -74.47722 | 36916 ft | 410 kts | 227° |
| 2026-04-28 19:52 | 13.81082 | -74.51880 | 36915 ft | 410 kts | 227° |
| 2026-04-28 19:52 | 13.77051 | -74.56044 | 36913 ft | 410 kts | 227° |
| 2026-04-28 19:53 | 13.73052 | -74.60172 | 36915 ft | 410 kts | 227° |
| 2026-04-28 19:53 | 13.69025 | -74.64328 | 36911 ft | 410 kts | 227° |
| 2026-04-28 19:54 | 13.64997 | -74.68482 | 36913 ft | 410 kts | 227° |
| 2026-04-28 19:54 | 13.60969 | -74.72635 | 36909 ft | 410 kts | 227° |
| 2026-04-28 19:55 | 13.56943 | -74.76784 | 36912 ft | 410 kts | 227° |
| 2026-04-28 19:55 | 13.52911 | -74.80936 | 36909 ft | 410 kts | 226° |
| 2026-04-28 19:56 | 13.48879 | -74.85086 | 36906 ft | 410 kts | 226° |
| 2026-04-28 19:56 | 13.44841 | -74.89240 | 36907 ft | 411 kts | 226° |
| 2026-04-28 19:57 | 13.40803 | -74.93393 | 36908 ft | 411 kts | 226° |
| 2026-04-28 19:57 | 13.36789 | -74.97518 | 36906 ft | 411 kts | 226° |
| 2026-04-28 19:58 | 13.32746 | -75.01672 | 36900 ft | 411 kts | 226° |
| 2026-04-28 19:58 | 13.28696 | -75.05830 | 36901 ft | 411 kts | 226° |
| 2026-04-28 19:59 | 13.24643 | -75.09991 | 36901 ft | 411 kts | 226° |
| 2026-04-28 19:59 | 13.20617 | -75.14122 | 36902 ft | 411 kts | 226° |
| 2026-04-28 20:00 | 13.16572 | -75.18269 | 36902 ft | 411 kts | 226° |
| 2026-04-28 20:00 | 13.12518 | -75.22423 | 36899 ft | 412 kts | 226° |
| 2026-04-28 20:01 | 13.08465 | -75.26576 | 36898 ft | 411 kts | 226° |
| 2026-04-28 20:01 | 13.04410 | -75.30730 | 36897 ft | 411 kts | 226° |
| 2026-04-28 20:02 | 13.00358 | -75.34880 | 36894 ft | 412 kts | 226° |
| 2026-04-28 20:02 | 12.96303 | -75.39031 | 36897 ft | 412 kts | 226° |
| 2026-04-28 20:03 | 12.92249 | -75.43176 | 36887 ft | 412 kts | 226° |
| 2026-04-28 20:03 | 12.88192 | -75.47318 | 36890 ft | 411 kts | 226° |
| 2026-04-28 20:04 | 12.84140 | -75.51454 | 36903 ft | 411 kts | 226° |
| 2026-04-28 20:04 | 12.80111 | -75.55566 | 36887 ft | 411 kts | 226° |
| 2026-04-28 20:05 | 12.76058 | -75.59702 | 36888 ft | 411 kts | 226° |
| 2026-04-28 20:05 | 12.71994 | -75.63845 | 36888 ft | 411 kts | 226° |
| 2026-04-28 20:06 | 12.67932 | -75.67986 | 36888 ft | 412 kts | 226° |
| 2026-04-28 20:06 | 12.63873 | -75.72122 | 36888 ft | 412 kts | 226° |
| 2026-04-28 20:07 | 12.59817 | -75.76252 | 36885 ft | 412 kts | 226° |
| 2026-04-28 20:07 | 12.55753 | -75.80389 | 36886 ft | 412 kts | 226° |
| 2026-04-28 20:08 | 12.51692 | -75.84521 | 36882 ft | 412 kts | 226° |
| 2026-04-28 20:08 | 12.47654 | -75.88627 | 36882 ft | 411 kts | 225° |
| 2026-04-28 20:09 | 12.43593 | -75.92755 | 36882 ft | 411 kts | 225° |
| 2026-04-28 20:09 | 12.39527 | -75.96886 | 36883 ft | 412 kts | 225° |
| 2026-04-28 20:10 | 12.35460 | -76.01016 | 36883 ft | 412 kts | 225° |
| 2026-04-28 20:10 | 12.31393 | -76.05146 | 36879 ft | 412 kts | 225° |
| 2026-04-28 20:11 | 12.27328 | -76.09271 | 36877 ft | 412 kts | 225° |
| 2026-04-28 20:11 | 12.23262 | -76.13393 | 36876 ft | 412 kts | 225° |
| 2026-04-28 20:12 | 12.19219 | -76.17493 | 36879 ft | 412 kts | 225° |
| 2026-04-28 20:12 | 12.15153 | -76.21615 | 36875 ft | 412 kts | 225° |
| 2026-04-28 20:13 | 12.11083 | -76.25739 | 36879 ft | 412 kts | 225° |
| 2026-04-28 20:13 | 12.07015 | -76.29860 | 36875 ft | 412 kts | 225° |
| 2026-04-28 20:14 | 12.02944 | -76.33981 | 36873 ft | 412 kts | 225° |
| 2026-04-28 20:14 | 11.98874 | -76.38100 | 36875 ft | 412 kts | 225° |
| 2026-04-28 20:15 | 11.94802 | -76.42219 | 36872 ft | 412 kts | 225° |
| 2026-04-28 20:15 | 11.91419 | -76.45641 | 36871 ft | 412 kts | 225° |
| 2026-04-28 20:16 | 11.87345 | -76.49759 | 36877 ft | 412 kts | 225° |
| 2026-04-28 20:16 | 11.82604 | -76.54548 | 36869 ft | 412 kts | 225° |
| 2026-04-28 20:17 | 11.79213 | -76.57973 | 36869 ft | 412 kts | 225° |
| 2026-04-28 20:17 | 11.75136 | -76.62088 | 36870 ft | 412 kts | 225° |
| 2026-04-28 20:18 | 11.70398 | -76.66868 | 36867 ft | 412 kts | 225° |
| 2026-04-28 20:18 | 11.66980 | -76.70316 | 36867 ft | 412 kts | 225° |
| 2026-04-28 20:19 | 11.62902 | -76.74427 | 36870 ft | 412 kts | 225° |
| 2026-04-28 20:19 | 11.58829 | -76.78531 | 36869 ft | 412 kts | 225° |
| 2026-04-28 20:20 | 11.54754 | -76.82635 | 36873 ft | 412 kts | 225° |
| 2026-04-28 20:20 | 11.50676 | -76.86741 | 36862 ft | 412 kts | 224° |
| 2026-04-28 20:21 | 11.46623 | -76.90817 | 36862 ft | 412 kts | 224° |
| 2026-04-28 20:21 | 11.42545 | -76.94923 | 36863 ft | 412 kts | 224° |
| 2026-04-28 20:22 | 11.38460 | -76.99033 | 36868 ft | 413 kts | 224° |
| 2026-04-28 20:22 | 11.34418 | -77.03210 | 36871 ft | 414 kts | 226° |
| 2026-04-28 20:23 | 11.30452 | -77.07468 | 36870 ft | 414 kts | 226° |
| 2026-04-28 20:23 | 11.26480 | -77.11727 | 36867 ft | 414 kts | 226° |
| 2026-04-28 20:24 | 11.22528 | -77.15944 | 36867 ft | 414 kts | 226° |
| 2026-04-28 20:24 | 11.18541 | -77.20188 | 36868 ft | 414 kts | 226° |
| 2026-04-28 20:25 | 11.14553 | -77.24429 | 36867 ft | 414 kts | 226° |
| 2026-04-28 20:25 | 11.10566 | -77.28669 | 36865 ft | 414 kts | 226° |
| 2026-04-28 20:26 | 11.06581 | -77.32906 | 36868 ft | 414 kts | 226° |
| 2026-04-28 20:26 | 11.02597 | -77.37140 | 36867 ft | 414 kts | 226° |
| 2026-04-28 20:27 | 10.98618 | -77.41366 | 36872 ft | 414 kts | 226° |
| 2026-04-28 20:27 | 10.94562 | -77.45524 | 36869 ft | 413 kts | 224° |
| 2026-04-28 20:28 | 10.90483 | -77.49590 | 36873 ft | 413 kts | 224° |
| 2026-04-28 20:28 | 10.86370 | -77.53694 | 36866 ft | 413 kts | 224° |
| 2026-04-28 20:29 | 10.82272 | -77.57798 | 36865 ft | 413 kts | 224° |
| 2026-04-28 20:29 | 10.78178 | -77.61905 | 36879 ft | 413 kts | 224° |
| 2026-04-28 20:30 | 10.74086 | -77.66012 | 36868 ft | 413 kts | 224° |
| 2026-04-28 20:30 | 10.70010 | -77.70101 | 36870 ft | 414 kts | 224° |
| 2026-04-28 20:31 | 10.65914 | -77.74208 | 36880 ft | 414 kts | 224° |
| 2026-04-28 20:31 | 10.61812 | -77.78318 | 36872 ft | 414 kts | 224° |
| 2026-04-28 20:32 | 10.57710 | -77.82427 | 36865 ft | 414 kts | 224° |
| 2026-04-28 20:32 | 10.53604 | -77.86539 | 36870 ft | 414 kts | 224° |
| 2026-04-28 20:33 | 10.49527 | -77.90621 | 36866 ft | 414 kts | 224° |
| 2026-04-28 20:33 | 10.45425 | -77.94725 | 36876 ft | 414 kts | 225° |
| 2026-04-28 20:34 | 10.41321 | -77.98830 | 36875 ft | 414 kts | 225° |
| 2026-04-28 20:34 | 10.37219 | -78.02931 | 36866 ft | 414 kts | 225° |
| 2026-04-28 20:34 | 10.35158 | -78.04992 | 36556 ft | 417 kts | 225° |
| 2026-04-28 20:35 | 10.33105 | -78.07043 | 36262 ft | 411 kts | 225° |
| 2026-04-28 20:35 | 10.31077 | -78.09070 | 35856 ft | 406 kts | 225° |
| 2026-04-28 20:35 | 10.29067 | -78.11077 | 35458 ft | 403 kts | 225° |
| 2026-04-28 20:35 | 10.27078 | -78.13063 | 35057 ft | 400 kts | 225° |
| 2026-04-28 20:36 | 10.25125 | -78.15014 | 34658 ft | 397 kts | 225° |
| 2026-04-28 20:36 | 10.23160 | -78.16976 | 34238 ft | 395 kts | 225° |
| 2026-04-28 20:36 | 10.21201 | -78.18931 | 33830 ft | 393 kts | 225° |
| 2026-04-28 20:36 | 10.19256 | -78.20872 | 33380 ft | 391 kts | 225° |
| 2026-04-28 20:37 | 10.17319 | -78.22806 | 32962 ft | 388 kts | 225° |
| 2026-04-28 20:37 | 10.15399 | -78.24722 | 32538 ft | 386 kts | 224° |
| 2026-04-28 20:37 | 10.13484 | -78.26632 | 32102 ft | 385 kts | 224° |
| 2026-04-28 20:37 | 10.11579 | -78.28531 | 31692 ft | 383 kts | 224° |
| 2026-04-28 20:38 | 10.09679 | -78.30426 | 31289 ft | 380 kts | 224° |
| 2026-04-28 20:38 | 10.07818 | -78.32281 | 30915 ft | 378 kts | 224° |
| 2026-04-28 20:38 | 10.05943 | -78.34151 | 30537 ft | 376 kts | 224° |
| 2026-04-28 20:38 | 10.04077 | -78.36010 | 30159 ft | 375 kts | 224° |
| 2026-04-28 20:39 | 10.02223 | -78.37858 | 29759 ft | 373 kts | 224° |
| 2026-04-28 20:39 | 10.00375 | -78.39699 | 29290 ft | 371 kts | 224° |
| 2026-04-28 20:39 | 9.98535 | -78.41532 | 28835 ft | 370 kts | 224° |
| 2026-04-28 20:39 | 9.96706 | -78.43353 | 28394 ft | 368 kts | 224° |
| 2026-04-28 20:40 | 9.94883 | -78.45169 | 27939 ft | 365 kts | 224° |
| 2026-04-28 20:40 | 9.93077 | -78.46967 | 27410 ft | 362 kts | 224° |
| 2026-04-28 20:40 | 9.91284 | -78.48752 | 26796 ft | 362 kts | 224° |
| 2026-04-28 20:40 | 9.89518 | -78.50509 | 26383 ft | 357 kts | 224° |
| 2026-04-28 20:41 | 9.87760 | -78.52259 | 25996 ft | 352 kts | 224° |
| 2026-04-28 20:41 | 9.86015 | -78.53995 | 25636 ft | 351 kts | 224° |
| 2026-04-28 20:41 | 9.84279 | -78.55722 | 25272 ft | 349 kts | 224° |
| 2026-04-28 20:41 | 9.82543 | -78.57449 | 24899 ft | 349 kts | 224° |
| 2026-04-28 20:42 | 9.80814 | -78.59168 | 24525 ft | 348 kts | 224° |
| 2026-04-28 20:42 | 9.79089 | -78.60884 | 24163 ft | 347 kts | 224° |
| 2026-04-28 20:42 | 9.77360 | -78.62603 | 23796 ft | 347 kts | 224° |
| 2026-04-28 20:42 | 9.75639 | -78.64313 | 23438 ft | 347 kts | 224° |
| 2026-04-28 20:43 | 9.73917 | -78.66025 | 23025 ft | 346 kts | 224° |
| 2026-04-28 20:43 | 9.72204 | -78.67727 | 22654 ft | 344 kts | 224° |
| 2026-04-28 20:43 | 9.70502 | -78.69419 | 22296 ft | 342 kts | 224° |
| 2026-04-28 20:43 | 9.68807 | -78.71103 | 21936 ft | 340 kts | 224° |
| 2026-04-28 20:44 | 9.67123 | -78.72776 | 21586 ft | 338 kts | 224° |
| 2026-04-28 20:44 | 9.65447 | -78.74440 | 21241 ft | 336 kts | 224° |
| 2026-04-28 20:44 | 9.63803 | -78.76072 | 20903 ft | 334 kts | 224° |
| 2026-04-28 20:44 | 9.62145 | -78.77719 | 20563 ft | 333 kts | 224° |
| 2026-04-28 20:45 | 9.60494 | -78.79358 | 20215 ft | 331 kts | 224° |
| 2026-04-28 20:45 | 9.58852 | -78.80988 | 19882 ft | 330 kts | 224° |
| 2026-04-28 20:45 | 9.57212 | -78.82615 | 19550 ft | 329 kts | 224° |
| 2026-04-28 20:45 | 9.55579 | -78.84236 | 19204 ft | 329 kts | 224° |
| 2026-04-28 20:46 | 9.53947 | -78.85855 | 18862 ft | 328 kts | 224° |
| 2026-04-28 20:46 | 9.52320 | -78.87469 | 18521 ft | 328 kts | 224° |
| 2026-04-28 20:46 | 9.50689 | -78.89087 | 18169 ft | 328 kts | 224° |
| 2026-04-28 20:46 | 9.49066 | -78.90697 | 17859 ft | 325 kts | 224° |
| 2026-04-28 20:47 | 9.47456 | -78.92294 | 17528 ft | 323 kts | 224° |
| 2026-04-28 20:47 | 9.45859 | -78.93877 | 17200 ft | 321 kts | 224° |
| 2026-04-28 20:47 | 9.44267 | -78.95456 | 16869 ft | 319 kts | 224° |
| 2026-04-28 20:47 | 9.42686 | -78.97024 | 16546 ft | 317 kts | 224° |
| 2026-04-28 20:48 | 9.41111 | -78.98584 | 16221 ft | 316 kts | 224° |
| 2026-04-28 20:48 | 9.39556 | -79.00125 | 15896 ft | 315 kts | 224° |
| 2026-04-28 20:48 | 9.37970 | -79.01697 | 15569 ft | 314 kts | 223° |
| 2026-04-28 20:48 | 9.36410 | -79.03243 | 15246 ft | 314 kts | 223° |
| 2026-04-28 20:49 | 9.34853 | -79.04785 | 14918 ft | 313 kts | 223° |
| 2026-04-28 20:49 | 9.33318 | -79.06306 | 14602 ft | 312 kts | 223° |
| 2026-04-28 20:49 | 9.31861 | -79.07749 | 14295 ft | 312 kts | 223° |
| 2026-04-28 20:49 | 9.30307 | -79.09288 | 13959 ft | 313 kts | 223° |
| 2026-04-28 20:50 | 9.28753 | -79.10827 | 13633 ft | 312 kts | 223° |
| 2026-04-28 20:50 | 9.27198 | -79.12366 | 13265 ft | 312 kts | 223° |
| 2026-04-28 20:50 | 9.25641 | -79.13880 | 12921 ft | 311 kts | 220° |
| 2026-04-28 20:50 | 9.23912 | -79.15195 | 12525 ft | 311 kts | 213° |
| 2026-04-28 20:51 | 9.22095 | -79.16382 | 12155 ft | 311 kts | 211° |
| 2026-04-28 20:51 | 9.20257 | -79.17552 | 11783 ft | 312 kts | 211° |
| 2026-04-28 20:51 | 9.18417 | -79.18736 | 11400 ft | 313 kts | 212° |
| 2026-04-28 20:51 | 9.17202 | -79.19527 | 11142 ft | 314 kts | 212° |
| 2026-04-28 20:52 | 9.14752 | -79.21141 | 10638 ft | 315 kts | 212° |
| 2026-04-28 20:52 | 9.12917 | -79.22361 | 10251 ft | 316 kts | 213° |
| 2026-04-28 20:52 | 9.11070 | -79.23593 | 9889 ft | 316 kts | 213° |
| 2026-04-28 20:52 | 9.09300 | -79.24777 | 9891 ft | 300 kts | 213° |
| 2026-04-28 20:53 | 9.05750 | -79.27151 | 8709 ft | 307 kts | 213° |
| 2026-04-28 20:53 | 9.03976 | -79.28337 | 8329 ft | 303 kts | 213° |
| 2026-04-28 20:53 | 9.02225 | -79.29504 | 7943 ft | 300 kts | 212° |
| 2026-04-28 20:54 | 9.00429 | -79.30561 | 7541 ft | 297 kts | 208° |
| 2026-04-28 20:54 | 8.98611 | -79.31540 | 7153 ft | 295 kts | 207° |
| 2026-04-28 20:54 | 8.96792 | -79.32510 | 6769 ft | 295 kts | 208° |
| 2026-04-28 20:54 | 8.94981 | -79.33484 | 6376 ft | 294 kts | 208° |
| 2026-04-28 20:55 | 8.93180 | -79.34462 | 5956 ft | 293 kts | 209° |
| 2026-04-28 20:55 | 8.91392 | -79.35439 | 5560 ft | 292 kts | 208° |
| 2026-04-28 20:55 | 8.89610 | -79.36415 | 5170 ft | 290 kts | 209° |
| 2026-04-28 20:55 | 8.87837 | -79.37387 | 4780 ft | 289 kts | 210° |
| 2026-04-28 20:56 | 8.86302 | -79.38654 | 4359 ft | 285 kts | 236° |
| 2026-04-28 20:56 | 8.85568 | -79.40464 | 4040 ft | 275 kts | 265° |
| 2026-04-28 20:56 | 8.85649 | -79.42336 | 3820 ft | 262 kts | 286° |
| 2026-04-28 20:56 | 8.86322 | -79.43973 | 3599 ft | 251 kts | 304° |
| 2026-04-28 20:57 | 8.87244 | -79.45433 | 3396 ft | 243 kts | 305° |
| 2026-04-28 20:57 | 8.88316 | -79.46677 | 3258 ft | 228 kts | 330° |
| 2026-04-28 20:57 | 8.89776 | -79.47017 | 3146 ft | 213 kts | 9° |
| 2026-04-28 20:57 | 8.91189 | -79.46589 | 2927 ft | 212 kts | 18° |
| 2026-04-28 20:58 | 8.92548 | -79.46049 | 2654 ft | 208 kts | 21° |
| 2026-04-28 20:58 | 8.93848 | -79.45454 | 2401 ft | 204 kts | 26° |
| 2026-04-28 20:58 | 8.95086 | -79.44773 | 2148 ft | 201 kts | 27° |
| 2026-04-28 20:58 | 8.96282 | -79.44090 | 1885 ft | 193 kts | 27° |
| 2026-04-28 20:59 | 8.97414 | -79.43444 | 1640 ft | 180 kts | 27° |
| 2026-04-28 20:59 | 8.98444 | -79.42855 | 1429 ft | 161 kts | 26° |
| 2026-04-28 20:59 | 8.99385 | -79.42322 | 1223 ft | 153 kts | 25° |
| 2026-04-28 20:59 | 9.00321 | -79.41788 | 1012 ft | 154 kts | 25° |
| 2026-04-28 21:00 | 9.01244 | -79.41265 | 829 ft | 149 kts | 26° |
| 2026-04-28 21:00 | 9.02084 | -79.40786 | 647 ft | 138 kts | 26° |
| 2026-04-28 21:00 | 9.02956 | -79.40290 | 469 ft | 146 kts | 28° |
| 2026-04-28 21:00 | 9.03820 | -79.39798 | 275 ft | 141 kts | 28° |
| 2026-04-28 21:01 | 9.04678 | -79.39307 | 128 ft | 138 kts | 27° |
| 2026-04-28 21:01 | 9.05486 | -79.38845 | 51 ft | 125 kts | 27° |
| 2026-04-28 21:01 | 9.06154 | -79.38469 | 30 ft | 83 kts | 28° |
| 2026-04-28 21:01 | 9.06495 | -79.38277 | 28 ft | 48 kts | 29° |
| 2026-04-28 21:02 | 9.06793 | -79.38106 | 28 ft | 47 kts | 29° |
| 2026-04-28 21:02 | 9.07008 | -79.37984 | 29 ft | 20 kts | 29° |
| 2026-04-28 21:02 | 9.07110 | -79.37929 | 29 ft | 12 kts | 15° |
| 2026-04-28 21:02 | 9.07175 | -79.37968 | 29 ft | 12 kts | 304° |
| 2026-04-28 21:03 | 9.07195 | -79.38042 | 29 ft | 11 kts | 252° |
| 2026-04-28 21:03 | 9.07142 | -79.38097 | 29 ft | 11 kts | 218° |
| 2026-04-28 21:03 | 9.07076 | -79.38132 | 29 ft | 11 kts | 208° |
| 2026-04-28 21:03 | 9.07011 | -79.38167 | 29 ft | 10 kts | 208° |
| 2026-04-28 21:04 | 9.06949 | -79.38201 | 29 ft | 10 kts | 208° |
| 2026-04-28 21:04 | 9.06888 | -79.38234 | 29 ft | 10 kts | 208° |
| 2026-04-28 21:04 | 9.06829 | -79.38267 | 29 ft | 10 kts | 208° |
| 2026-04-28 21:04 | 9.06791 | -79.38287 | 29 ft | 9 kts | 207° |
| 2026-04-28 21:05 | 9.06734 | -79.38317 | 29 ft | 9 kts | 207° |
| 2026-04-28 21:05 | 9.06678 | -79.38347 | 29 ft | 9 kts | 207° |
| 2026-04-28 21:05 | 9.06610 | -79.38383 | 29 ft | 16 kts | 207° |
| 2026-04-28 21:05 | 9.06470 | -79.38461 | 29 ft | 17 kts | 210° |
| 2026-04-28 21:06 | 9.06401 | -79.38502 | 29 ft | 17 kts | 211° |
| 2026-04-28 21:06 | 9.06303 | -79.38560 | 29 ft | 15 kts | 209° |
| 2026-04-28 21:06 | 9.06205 | -79.38617 | 29 ft | 22 kts | 211° |
| 2026-04-28 21:06 | 9.06070 | -79.38693 | 29 ft | 22 kts | 208° |
| 2026-04-28 21:07 | 9.05982 | -79.38761 | 29 ft | 12 kts | 261° |
| 2026-04-28 21:07 | 9.06044 | -79.38791 | 29 ft | 12 kts | 28° |
| 2026-04-28 21:07 | 9.06130 | -79.38741 | 29 ft | 20 kts | 30° |
| 2026-04-28 21:07 | 9.06251 | -79.38673 | 29 ft | 13 kts | 29° |
| 2026-04-28 21:08 | 9.06315 | -79.38640 | 29 ft | 9 kts | 18° |
| 2026-04-28 21:08 | 9.06325 | -79.38638 | 29 ft | 0 kts | 13° |
| 2026-04-28 21:08 | 9.06342 | -79.38646 | 29 ft | 3 kts | 318° |
| 2026-04-28 21:08 | 9.06357 | -79.38672 | 29 ft | 7 kts | 297° |
| 2026-04-28 21:09 | 9.06381 | -79.38718 | 29 ft | 7 kts | 297° |
| 2026-04-28 21:09 | 9.06395 | -79.38763 | 29 ft | 4 kts | 302° |
| 2026-04-28 21:09 | 9.06422 | -79.38761 | 29 ft | 4 kts | 46° |
| 2026-04-28 21:09 | 9.06437 | -79.38746 | 29 ft | 0 kts | 36° |
| 2026-04-28 21:10 | 9.06445 | -79.38741 | 29 ft | 2 kts | 34° |